Artesian, Iowa
Current Conditions -  °F | °C
As of 12:54 PM on Monday 22 Dec 2014 (Local Time) from KALO Reporting Station
Light Rain Light Rain  
Wind Chill: 28°   Ceiling: 700
Heat Index: 37°   Visibility: 3mi
Dew Point: 36°   Wind: 14mph
Humidity: 96%   Direction: 120°ESE
Pressure: 29.58"   Gusts: NA
Location:  42.787°N, 92.4284°W
Report Text: KALO 221854Z AUTO 12012KT 3SM -RA BR OVC007 03/02 A2958 RMK AO2 SLP024 P0002 T00280022
Loading
Personal Weather Stations






























Interactive Weather Map New forecast layout! Learn more

10-Day Weather Forecast

Advertisements
Track Severe Weather on mobile